Time;durP1;ratioP1;P1;durP2;ratioP2;P2;SDS_P1;SDS_P2;PMS_P1;PMS_P2;Temp;Humidity;BMP_temperature;BMP_pressure;BME280_temperature;BME280_humidity;BME280_pressure;Samples;Min_cycle;Max_cycle;Signal;HPM_P1;HPM_P2
2023/09/26 00:00:06;;;;;;;1.92;1.20;;;18.80;74.90;;;;;;5066203;28;20104;-67
2023/09/26 00:02:32;;;;;;;2.83;1.55;;;18.80;74.80;;;;;;5067000;28;20475;-67
2023/09/26 00:04:58;;;;;;;2.47;1.58;;;18.80;75.10;;;;;;5068561;28;20021;-67
2023/09/26 00:07:24;;;;;;;2.88;1.85;;;18.70;75.10;;;;;;5057847;28;20074;-65
2023/09/26 00:09:49;;;;;;;1.92;1.40;;;18.70;75.20;;;;;;5065388;28;20037;-65
2023/09/26 00:12:15;;;;;;;1.75;1.33;;;18.70;75.20;;;;;;5065082;28;20017;-67
2023/09/26 00:14:41;;;;;;;2.03;1.48;;;18.60;75.20;;;;;;5050382;28;20086;-65
2023/09/26 00:17:06;;;;;;;1.95;1.42;;;18.60;75.20;;;;;;5067369;28;20486;-67
2023/09/26 00:19:32;;;;;;;2.00;1.27;;;18.60;75.20;;;;;;5067793;28;20017;-67
2023/09/26 00:21:58;;;;;;;2.47;1.67;;;18.50;75.10;;;;;;5071451;28;20131;-67
2023/09/26 00:24:24;;;;;;;2.40;1.35;;;18.50;75.20;;;;;;5066932;28;20052;-67
2023/09/26 00:26:49;;;;;;;2.38;1.38;;;18.40;75.20;;;;;;5067074;28;20032;-66
2023/09/26 00:29:15;;;;;;;1.35;1.08;;;18.30;75.10;;;;;;5068405;28;20017;-67
2023/09/26 00:31:40;;;;;;;4.18;1.30;;;18.30;75.10;;;;;;5050145;28;20036;-67
2023/09/26 00:34:06;;;;;;;1.52;1.20;;;18.20;75.00;;;;;;5057567;28;20028;-69
2023/09/26 00:36:32;;;;;;;2.83;1.60;;;18.20;75.00;;;;;;5048997;28;20036;-67
2023/09/26 00:38:57;;;;;;;1.73;1.45;;;18.10;75.00;;;;;;5049255;28;20060;-68
2023/09/26 00:41:23;;;;;;;1.48;1.08;;;18.10;75.00;;;;;;5068295;28;20053;-69
2023/09/26 00:43:49;;;;;;;1.80;1.08;;;18.00;74.90;;;;;;5060968;28;20852;-69
2023/09/26 00:46:15;;;;;;;1.40;1.05;;;17.90;74.90;;;;;;5049380;28;20119;-69
2023/09/26 00:48:42;;;;;;;1.58;1.10;;;17.90;74.90;;;;;;5064987;28;20383;-69
2023/09/26 00:51:08;;;;;;;3.67;1.55;;;17.90;74.90;;;;;;5062106;28;20024;-69
2023/09/26 00:53:37;;;;;;;1.48;1.20;;;17.80;74.90;;;;;;5045672;28;20501;-67
2023/09/26 00:56:03;;;;;;;2.83;1.08;;;17.80;74.90;;;;;;5067634;28;20017;-68
2023/09/26 00:58:31;;;;;;;1.13;1.00;;;17.70;75.00;;;;;;5067835;28;20436;-67
2023/09/26 01:00:58;;;;;;;1.52;0.98;;;17.70;75.50;;;;;;5068172;28;20029;-67
2023/09/26 01:03:24;;;;;;;3.00;1.17;;;17.60;74.80;;;;;;5063868;28;20449;-67
2023/09/26 01:05:50;;;;;;;1.25;1.10;;;17.60;74.70;;;;;;5064479;28;20103;-69
2023/09/26 01:08:16;;;;;;;2.83;1.17;;;17.50;74.80;;;;;;5062694;28;20595;-69
2023/09/26 01:10:43;;;;;;;1.08;1.02;;;17.50;74.90;;;;;;5062195;28;20029;-70
2023/09/26 01:13:09;;;;;;;1.65;1.13;;;17.50;75.00;;;;;;5062548;28;20277;-69
2023/09/26 01:15:39;;;;;;;1.42;0.93;;;17.40;75.10;;;;;;5061595;28;20387;-69
2023/09/26 01:18:08;;;;;;;1.60;1.20;;;17.40;75.10;;;;;;5061831;28;20472;-69
2023/09/26 01:20:34;;;;;;;2.33;1.17;;;17.40;75.10;;;;;;5058786;28;20040;-69
2023/09/26 01:23:05;;;;;;;1.23;0.93;;;17.30;75.10;;;;;;5061851;28;20498;-69
2023/09/26 01:25:34;;;;;;;1.02;0.85;;;17.30;75.10;;;;;;5043371;28;20029;-69
2023/09/26 01:28:06;;;;;;;1.40;0.90;;;17.30;75.00;;;;;;5068412;28;20483;-69
2023/09/26 01:30:41;;;;;;;1.73;1.02;;;17.30;75.00;;;;;;5071400;28;20060;-69
2023/09/26 01:33:11;;;;;;;1.33;1.08;;;17.30;75.00;;;;;;5061229;28;20039;-69
2023/09/26 01:35:36;;;;;;;1.45;1.20;;;17.20;75.00;;;;;;5066639;28;20045;-69
2023/09/26 01:38:02;;;;;;;1.60;1.00;;;17.20;75.10;;;;;;5070341;28;20036;-69
2023/09/26 01:40:28;;;;;;;1.08;0.95;;;17.10;75.10;;;;;;5066747;28;20495;-69
2023/09/26 01:42:54;;;;;;;0.85;0.80;;;17.10;75.00;;;;;;5055659;28;20506;-69
2023/09/26 01:45:19;;;;;;;0.80;0.75;;;17.10;75.00;;;;;;5067875;28;20036;-69
2023/09/26 01:47:48;;;;;;;1.25;1.00;;;17.10;75.00;;;;;;5065204;28;20487;-69
2023/09/26 01:50:15;;;;;;;6.30;1.40;;;17.10;75.10;;;;;;5068621;28;20536;-69
2023/09/26 01:52:41;;;;;;;1.20;1.00;;;17.00;75.10;;;;;;5063550;28;20025;-69
2023/09/26 01:55:10;;;;;;;1.63;1.20;;;17.00;75.10;;;;;;5070392;28;20567;-69
2023/09/26 01:57:35;;;;;;;1.20;1.00;;;17.00;75.10;;;;;;5067635;28;20021;-69
2023/09/26 02:00:12;;;;;;;1.23;1.10;;;17.00;75.20;;;;;;5053939;28;20570;-69
2023/09/26 02:02:39;;;;;;;1.73;0.90;;;17.00;75.20;;;;;;5049109;28;20094;-70
2023/09/26 02:05:06;;;;;;;2.05;1.17;;;16.90;75.10;;;;;;5070523;28;20028;-69
2023/09/26 02:07:32;;;;;;;1.20;1.05;;;16.90;75.20;;;;;;5069816;28;20118;-69
2023/09/26 02:09:58;;;;;;;1.95;1.17;;;16.90;75.20;;;;;;5051367;28;20502;-70
2023/09/26 02:12:23;;;;;;;0.90;0.90;;;16.90;75.20;;;;;;5050173;28;20419;-69
2023/09/26 02:14:49;;;;;;;0.80;0.80;;;16.90;75.30;;;;;;5063230;28;20087;-69
2023/09/26 02:17:15;;;;;;;1.38;1.10;;;16.90;75.40;;;;;;5051998;28;20530;-69
2023/09/26 02:19:41;;;;;;;1.85;0.95;;;16.80;75.40;;;;;;5069371;28;20103;-69
2023/09/26 02:22:06;;;;;;;2.47;0.82;;;16.80;75.50;;;;;;5069738;28;20074;-69
2023/09/26 02:24:32;;;;;;;1.83;0.90;;;16.80;75.40;;;;;;5062188;28;20025;-69
2023/09/26 02:26:58;;;;;;;3.67;1.30;;;16.80;75.30;;;;;;5052975;28;20036;-69
2023/09/26 02:29:24;;;;;;;3.38;1.20;;;16.80;75.40;;;;;;5065980;28;20108;-69
2023/09/26 02:31:50;;;;;;;0.85;0.60;;;16.80;75.50;;;;;;5054020;28;20120;-69
2023/09/26 02:34:15;;;;;;;2.13;1.17;;;16.80;75.50;;;;;;5066634;28;20047;-67
2023/09/26 02:36:41;;;;;;;1.65;1.17;;;16.80;75.50;;;;;;5063772;28;20041;-69
2023/09/26 02:39:07;;;;;;;1.00;0.82;;;16.80;75.60;;;;;;5069330;28;20028;-69
2023/09/26 02:41:32;;;;;;;2.50;1.17;;;16.80;75.60;;;;;;5069721;28;20399;-69
2023/09/26 02:43:59;;;;;;;1.10;1.00;;;16.80;75.70;;;;;;5069793;28;20086;-69
2023/09/26 02:46:24;;;;;;;2.67;0.93;;;16.80;75.70;;;;;;5068732;28;20082;-69
2023/09/26 02:48:50;;;;;;;1.70;1.10;;;16.70;75.60;;;;;;5069000;28;20420;-69
2023/09/26 02:51:16;;;;;;;1.75;1.40;;;16.70;75.70;;;;;;5052043;28;20471;-69
2023/09/26 02:53:41;;;;;;;1.70;1.15;;;16.70;75.90;;;;;;5069474;28;20029;-69
2023/09/26 02:56:10;;;;;;;1.65;1.10;;;16.70;75.90;;;;;;5069560;28;20025;-69
2023/09/26 02:58:36;;;;;;;1.70;1.30;;;16.70;75.80;;;;;;5052109;28;20499;-69
2023/09/26 03:01:04;;;;;;;1.00;0.90;;;16.60;75.80;;;;;;5066130;28;20031;-69
2023/09/26 03:03:30;;;;;;;4.32;1.42;;;16.60;75.90;;;;;;5065871;28;20028;-69
2023/09/26 03:05:56;;;;;;;1.48;1.02;;;16.60;76.00;;;;;;5066089;28;20098;-69
2023/09/26 03:08:22;;;;;;;1.42;1.02;;;16.60;76.10;;;;;;5069284;28;20491;-67
2023/09/26 03:10:48;;;;;;;2.35;1.23;;;16.60;76.10;;;;;;5068500;28;20079;-67
2023/09/26 03:13:14;;;;;;;2.22;1.45;;;16.60;76.00;;;;;;5066874;28;20048;-67
2023/09/26 03:15:39;;;;;;;1.20;0.80;;;16.60;76.00;;;;;;5064478;28;20103;-67
2023/09/26 03:18:06;;;;;;;3.20;1.23;;;16.50;75.90;;;;;;5069627;28;20029;-67
2023/09/26 03:20:32;;;;;;;1.45;1.00;;;16.60;76.00;;;;;;5068798;28;20039;-67
2023/09/26 03:22:57;;;;;;;1.73;1.25;;;16.50;75.90;;;;;;5068015;28;20111;-67
2023/09/26 03:25:23;;;;;;;1.33;0.90;;;16.50;76.00;;;;;;5061561;28;20124;-67
2023/09/26 03:27:51;;;;;;;1.65;1.20;;;16.50;76.00;;;;;;5068552;28;20036;-67
2023/09/26 03:30:17;;;;;;;6.40;1.58;;;16.50;76.10;;;;;;5069342;28;20024;-68
2023/09/26 03:32:43;;;;;;;1.92;1.25;;;16.50;76.10;;;;;;5067830;28;20115;-67
2023/09/26 03:35:11;;;;;;;3.78;1.75;;;16.40;76.10;;;;;;5060993;28;20136;-67
2023/09/26 03:37:37;;;;;;;1.52;1.20;;;16.50;76.20;;;;;;5066081;28;20036;-67
2023/09/26 03:40:03;;;;;;;1.80;1.60;;;16.50;76.20;;;;;;5059128;28;20029;-67
2023/09/26 03:42:29;;;;;;;2.17;1.63;;;16.40;76.10;;;;;;5045351;28;20042;-67
2023/09/26 03:44:55;;;;;;;2.40;1.30;;;16.40;76.20;;;;;;5058621;28;20388;-67
2023/09/26 03:47:20;;;;;;;2.13;1.10;;;16.40;76.30;;;;;;5060625;28;20074;-67
2023/09/26 03:49:49;;;;;;;1.77;1.30;;;16.30;76.10;;;;;;5064084;28;20430;-67
2023/09/26 03:52:15;;;;;;;2.80;1.23;;;16.40;76.10;;;;;;5061288;28;20502;-67
2023/09/26 03:54:41;;;;;;;1.98;1.33;;;16.30;76.20;;;;;;5067734;28;20025;-67
2023/09/26 03:57:06;;;;;;;1.45;1.35;;;16.30;76.30;;;;;;5063617;28;20028;-67
2023/09/26 03:59:33;;;;;;;2.72;1.13;;;16.30;76.30;;;;;;5059799;28;20403;-67
2023/09/26 04:01:58;;;;;;;2.15;1.33;;;16.30;76.30;;;;;;5068615;28;20043;-67
2023/09/26 04:04:24;;;;;;;2.42;1.65;;;16.20;76.30;;;;;;5066292;28;20062;-67
2023/09/26 04:06:50;;;;;;;1.77;1.67;;;16.20;76.40;;;;;;5036600;28;20048;-67
2023/09/26 04:09:16;;;;;;;1.25;1.13;;;16.20;76.50;;;;;;5063534;28;20479;-69
2023/09/26 04:11:41;;;;;;;1.77;1.35;;;16.20;76.40;;;;;;5065132;28;20037;-69
2023/09/26 04:14:07;;;;;;;1.83;1.35;;;16.10;76.30;;;;;;5063120;28;20029;-67
2023/09/26 04:16:32;;;;;;;1.70;1.35;;;16.10;76.20;;;;;;5064008;28;20021;-67
2023/09/26 04:18:58;;;;;;;3.38;1.50;;;16.10;76.30;;;;;;5065804;28;20017;-67
2023/09/26 04:21:24;;;;;;;3.00;1.30;;;16.10;76.20;;;;;;5051433;28;20029;-67
2023/09/26 04:23:51;;;;;;;1.85;1.38;;;16.10;76.10;;;;;;5056851;28;20047;-67
2023/09/26 04:26:18;;;;;;;2.78;1.67;;;16.10;76.20;;;;;;5024916;28;20040;-69
2023/09/26 04:28:45;;;;;;;2.13;1.60;;;16.00;76.40;;;;;;5061765;28;20554;-67
2023/09/26 04:31:18;;;;;;;2.97;1.60;;;16.00;77.00;;;;;;5056216;28;20382;-67
2023/09/26 04:33:50;;;;;;;2.10;1.67;;;16.00;76.40;;;;;;5061615;28;20048;-67
2023/09/26 04:36:16;;;;;;;2.63;2.17;;;16.00;76.50;;;;;;5063266;28;20538;-67
2023/09/26 04:38:42;;;;;;;2.10;1.77;;;16.00;76.60;;;;;;5062872;28;20356;-67
2023/09/26 04:41:08;;;;;;;2.35;1.77;;;15.90;76.60;;;;;;5042517;28;20820;-69
2023/09/26 04:43:34;;;;;;;1.73;1.25;;;15.90;76.60;;;;;;5020534;28;20032;-67
2023/09/26 04:46:00;;;;;;;2.15;1.75;;;15.90;76.50;;;;;;5059198;28;20123;-67
2023/09/26 04:48:26;;;;;;;2.00;1.45;;;15.90;76.50;;;;;;5055749;28;20179;-67
2023/09/26 04:50:52;;;;;;;4.60;1.95;;;15.90;76.40;;;;;;5052134;28;20383;-67
2023/09/26 04:53:18;;;;;;;3.38;1.92;;;15.90;76.60;;;;;;5065283;28;20033;-66
2023/09/26 04:55:44;;;;;;;1.92;1.60;;;15.90;76.70;;;;;;5063478;28;20052;-67
2023/09/26 04:58:09;;;;;;;1.98;1.30;;;15.90;76.80;;;;;;5066823;28;20036;-67
2023/09/26 05:00:39;;;;;;;2.13;1.50;;;15.90;76.80;;;;;;5070783;28;20044;-67
2023/09/26 05:03:05;;;;;;;2.60;1.60;;;15.90;76.70;;;;;;5070519;28;20024;-68
2023/09/26 05:05:30;;;;;;;2.20;1.52;;;15.90;76.70;;;;;;5067294;28;20110;-67
2023/09/26 05:07:56;;;;;;;2.15;1.92;;;15.80;76.60;;;;;;5070085;28;20446;-70
2023/09/26 05:10:22;;;;;;;1.98;1.35;;;15.90;76.70;;;;;;5070939;28;20380;-70
2023/09/26 05:12:48;;;;;;;1.88;1.42;;;15.80;76.60;;;;;;5071890;28;20052;-69
2023/09/26 05:15:16;;;;;;;2.22;1.52;;;15.80;76.50;;;;;;5066216;28;20025;-69
2023/09/26 05:17:47;;;;;;;5.40;1.45;;;15.80;76.50;;;;;;5063625;28;20024;-70
2023/09/26 05:20:14;;;;;;;2.10;1.80;;;15.80;77.20;;;;;;5071397;28;20021;-70
2023/09/26 05:22:44;;;;;;;2.97;1.60;;;15.80;76.60;;;;;;5069717;28;20024;-70
2023/09/26 05:25:10;;;;;;;2.75;1.70;;;15.80;76.50;;;;;;5066680;28;20032;-69
2023/09/26 05:27:37;;;;;;;2.75;1.27;;;15.80;76.60;;;;;;5060901;28;20491;-69
2023/09/26 05:30:03;;;;;;;3.83;2.15;;;15.80;76.50;;;;;;5067210;28;20391;-69
2023/09/26 05:32:29;;;;;;;2.38;1.95;;;15.80;76.70;;;;;;5066591;28;20032;-70
2023/09/26 05:34:55;;;;;;;1.40;1.30;;;15.80;76.80;;;;;;5068162;28;20049;-70
2023/09/26 05:37:21;;;;;;;2.80;1.80;;;15.70;76.70;;;;;;5066236;28;20056;-69
2023/09/26 05:39:47;;;;;;;4.00;1.50;;;15.70;76.80;;;;;;5068475;28;20020;-70
2023/09/26 05:42:13;;;;;;;1.90;1.45;;;15.70;76.80;;;;;;5066894;28;20029;-69
2023/09/26 05:44:39;;;;;;;3.95;2.17;;;15.70;76.90;;;;;;5062037;28;20087;-70
2023/09/26 05:47:04;;;;;;;3.35;2.05;;;15.70;77.00;;;;;;5070336;28;20473;-70
2023/09/26 05:49:30;;;;;;;2.63;1.45;;;15.70;77.00;;;;;;5071169;28;20586;-70
2023/09/26 05:51:56;;;;;;;2.72;1.70;;;15.80;77.10;;;;;;5068244;28;20111;-69
2023/09/26 05:54:22;;;;;;;2.88;1.60;;;15.80;77.10;;;;;;5059024;28;20363;-70
2023/09/26 05:56:48;;;;;;;2.53;1.80;;;15.80;77.00;;;;;;5059133;28;20024;-69
2023/09/26 05:59:14;;;;;;;2.45;1.77;;;15.80;77.10;;;;;;5067229;28;20028;-68
2023/09/26 06:01:39;;;;;;;2.35;1.75;;;15.80;77.10;;;;;;5069324;28;20089;-68
2023/09/26 06:04:05;;;;;;;3.70;1.70;;;15.80;77.10;;;;;;5065983;28;20056;-70
2023/09/26 06:06:33;;;;;;;2.42;1.77;;;15.90;77.10;;;;;;5070325;28;20032;-69
2023/09/26 06:08:59;;;;;;;2.92;1.73;;;15.90;77.20;;;;;;5070009;28;20036;-67
2023/09/26 06:11:25;;;;;;;3.35;1.75;;;15.90;77.30;;;;;;5068683;28;20029;-68
2023/09/26 06:13:52;;;;;;;3.25;2.35;;;15.90;77.40;;;;;;5067731;28;20025;-67
2023/09/26 06:16:19;;;;;;;2.10;1.90;;;16.00;77.40;;;;;;5051927;28;20027;-68
2023/09/26 06:18:47;;;;;;;3.83;2.25;;;16.00;77.50;;;;;;5068808;28;20170;-70
2023/09/26 06:21:14;;;;;;;3.00;2.22;;;16.00;77.60;;;;;;5070499;28;20503;-70
2023/09/26 06:23:40;;;;;;;2.40;1.70;;;16.00;77.60;;;;;;5046729;28;20120;-70
2023/09/26 06:26:07;;;;;;;2.55;1.67;;;16.10;77.50;;;;;;5063360;28;20028;-70
2023/09/26 06:28:33;;;;;;;2.50;1.50;;;16.10;77.40;;;;;;5070432;28;20052;-70
2023/09/26 06:31:06;;;;;;;5.25;2.70;;;16.20;77.40;;;;;;5063528;28;20379;-70
2023/09/26 06:33:33;;;;;;;3.22;2.42;;;16.20;77.40;;;;;;5061021;28;20115;-70
2023/09/26 06:35:59;;;;;;;5.20;3.65;;;16.20;77.50;;;;;;5041771;28;20046;-70
2023/09/26 06:38:24;;;;;;;5.75;3.80;;;16.30;77.60;;;;;;5024180;28;20112;-69
2023/09/26 06:41:01;;;;;;;6.07;4.03;;;16.30;77.60;;;;;;5023436;28;20095;-67
2023/09/26 06:43:27;;;;;;;6.03;3.78;;;16.30;77.60;;;;;;5027169;28;20391;-67
2023/09/26 06:45:53;;;;;;;5.43;3.15;;;16.40;77.70;;;;;;5028117;28;20091;-67
2023/09/26 06:48:19;;;;;;;3.38;2.60;;;16.30;77.70;;;;;;5026863;28;20376;-70
2023/09/26 06:50:44;;;;;;;3.85;2.85;;;16.40;77.80;;;;;;5025596;28;20501;-67
2023/09/26 06:53:10;;;;;;;2.90;2.20;;;16.40;77.80;;;;;;5028493;28;20049;-67
2023/09/26 06:55:39;;;;;;;3.58;2.30;;;16.50;77.70;;;;;;5025130;28;20465;-68
2023/09/26 06:58:05;;;;;;;3.20;2.13;;;16.50;77.70;;;;;;5025441;28;20509;-67
2023/09/26 07:00:31;;;;;;;2.60;1.90;;;16.60;77.70;;;;;;5025679;28;20500;-68
2023/09/26 07:02:57;;;;;;;3.08;2.00;;;16.60;77.70;;;;;;5026605;28;20037;-67
2023/09/26 07:05:26;;;;;;;2.47;1.92;;;16.60;77.70;;;;;;5026628;28;20515;-67
2023/09/26 07:07:53;;;;;;;3.35;2.17;;;16.70;77.80;;;;;;5023708;28;20035;-69
2023/09/26 07:10:18;;;;;;;2.90;2.10;;;16.60;77.80;;;;;;5026645;28;20498;-70
2023/09/26 07:12:44;;;;;;;3.10;2.05;;;16.70;77.90;;;;;;5025905;28;20025;-70
2023/09/26 07:15:13;;;;;;;2.58;2.20;;;16.70;77.90;;;;;;5028451;28;20026;-68
2023/09/26 07:17:39;;;;;;;3.22;2.20;;;16.80;77.90;;;;;;5026858;28;20036;-69
2023/09/26 07:20:07;;;;;;;3.05;2.15;;;16.90;77.70;;;;;;5025749;28;20120;-68
2023/09/26 07:22:34;;;;;;;3.05;1.60;;;17.00;77.70;;;;;;5025891;28;20503;-65
2023/09/26 07:25:00;;;;;;;5.13;2.05;;;17.10;77.60;;;;;;5019101;28;20384;-66
2023/09/26 07:27:26;;;;;;;2.22;1.95;;;17.10;77.30;;;;;;5027988;28;20034;-66
2023/09/26 07:29:52;;;;;;;3.08;1.67;;;17.10;77.40;;;;;;5022747;28;20038;-65
2023/09/26 07:32:18;;;;;;;5.95;2.08;;;17.20;77.40;;;;;;5028548;28;20064;-69
2023/09/26 07:34:44;;;;;;;7.85;1.73;;;17.20;77.30;;;;;;5039836;28;20053;-69
2023/09/26 07:37:12;;;;;;;2.67;1.60;;;17.30;77.20;;;;;;5064726;28;20553;-70
2023/09/26 07:39:37;;;;;;;2.72;2.13;;;17.40;77.20;;;;;;5067625;28;20021;-70
2023/09/26 07:42:03;;;;;;;3.30;2.08;;;17.40;77.10;;;;;;5059878;28;20029;-70
2023/09/26 07:44:29;;;;;;;2.50;2.30;;;17.50;76.90;;;;;;5062950;28;20064;-70
2023/09/26 07:46:55;;;;;;;6.63;2.67;;;17.60;76.80;;;;;;5066811;28;20020;-71
2023/09/26 07:49:21;;;;;;;2.80;2.28;;;17.60;76.60;;;;;;5064918;28;20021;-67
2023/09/26 07:51:48;;;;;;;2.10;1.92;;;17.60;76.60;;;;;;5067993;28;20375;-67
2023/09/26 07:54:14;;;;;;;2.80;1.75;;;17.70;76.50;;;;;;5064174;28;20016;-67
2023/09/26 07:56:40;;;;;;;3.17;2.15;;;17.80;76.50;;;;;;5066117;28;20050;-70
2023/09/26 07:59:05;;;;;;;5.70;2.15;;;17.90;76.50;;;;;;5064110;28;20079;-71
2023/09/26 08:01:31;;;;;;;2.88;1.63;;;17.90;76.30;;;;;;5064083;28;20036;-70
2023/09/26 08:03:57;;;;;;;1.73;1.60;;;18.00;76.10;;;;;;5049266;28;20092;-70
2023/09/26 08:06:22;;;;;;;3.08;2.05;;;18.00;76.00;;;;;;5049963;28;20029;-72
2023/09/26 08:08:48;;;;;;;3.08;2.08;;;18.10;75.90;;;;;;5065936;28;20494;-72
2023/09/26 08:11:14;;;;;;;1.50;1.33;;;18.20;75.80;;;;;;5047636;28;20040;-70
2023/09/26 08:13:40;;;;;;;3.10;1.95;;;18.20;75.60;;;;;;5058365;28;20029;-67
2023/09/26 08:16:06;;;;;;;4.40;2.30;;;18.20;75.60;;;;;;5063707;28;20094;-71
2023/09/26 08:18:32;;;;;;;4.80;1.77;;;18.20;75.70;;;;;;5067408;28;20411;-71
2023/09/26 08:20:58;;;;;;;3.92;2.10;;;18.30;75.70;;;;;;5059047;28;20100;-70
2023/09/26 08:23:30;;;;;;;3.65;2.08;;;18.20;75.30;;;;;;5064484;28;20433;-70
2023/09/26 08:25:56;;;;;;;;;;;18.20;75.40;;;;;;5062370;28;20071;-67
2023/09/26 08:28:22;;;;;;;2.53;2.08;;;18.30;75.40;;;;;;5068166;28;20359;-66
2023/09/26 08:30:48;;;;;;;3.33;2.00;;;18.30;75.30;;;;;;5066342;28;20029;-67
2023/09/26 08:33:14;;;;;;;3.15;1.95;;;18.30;75.10;;;;;;5063867;28;20446;-64
2023/09/26 08:35:39;;;;;;;1.83;1.40;;;18.40;75.10;;;;;;5065805;28;20045;-66
2023/09/26 08:38:05;;;;;;;3.78;2.63;;;18.50;75.50;;;;;;5067746;28;20027;-65
2023/09/26 08:40:31;;;;;;;2.55;1.80;;;18.60;74.80;;;;;;5063049;28;20040;-67
2023/09/26 08:42:57;;;;;;;3.00;2.00;;;18.70;74.60;;;;;;5061032;28;20033;-67
2023/09/26 08:45:26;;;;;;;1.95;1.55;;;18.80;74.50;;;;;;5065410;28;20376;-66
2023/09/26 08:47:56;;;;;;;1.60;1.30;;;18.80;74.40;;;;;;5065946;28;20035;-66
2023/09/26 08:50:24;;;;;;;1.90;1.27;;;18.90;74.20;;;;;;5049651;28;20056;-69
2023/09/26 08:52:51;;;;;;;2.67;1.67;;;19.00;74.00;;;;;;5062439;28;20111;-68
2023/09/26 08:55:18;;;;;;;1.60;1.50;;;19.00;73.90;;;;;;5065573;28;20024;-69
2023/09/26 08:57:44;;;;;;;1.77;1.45;;;19.10;73.90;;;;;;5050056;28;20391;-68
2023/09/26 09:00:13;;;;;;;2.35;1.58;;;19.10;73.90;;;;;;5052167;28;20416;-68
2023/09/26 09:02:38;;;;;;;4.25;2.42;;;19.10;73.90;;;;;;5056905;28;20037;-68
2023/09/26 09:05:06;;;;;;;2.70;1.90;;;19.10;74.00;;;;;;5065845;28;20075;-68
2023/09/26 09:07:32;;;;;;;2.78;1.58;;;19.20;74.00;;;;;;5065885;28;20037;-68
2023/09/26 09:10:06;;;;;;;2.42;1.58;;;19.30;73.90;;;;;;5041675;28;20111;-68
2023/09/26 09:12:33;;;;;;;1.98;1.60;;;19.40;73.80;;;;;;5060392;28;20028;-68
2023/09/26 09:14:59;;;;;;;2.35;1.45;;;19.50;73.70;;;;;;5059121;28;20027;-68
2023/09/26 09:17:24;;;;;;;1.70;1.20;;;19.60;73.40;;;;;;5048256;28;20032;-68
2023/09/26 09:19:52;;;;;;;2.38;1.75;;;19.70;73.10;;;;;;5065195;28;20033;-68
2023/09/26 09:22:20;;;;;;;2.38;1.77;;;19.80;72.80;;;;;;5065376;28;20353;-68
2023/09/26 09:24:56;;;;;;;2.30;1.40;;;19.80;72.80;;;;;;5031493;28;20029;-68
2023/09/26 09:27:35;;;;;;;4.05;1.73;;;19.90;72.70;;;;;;5056220;28;20086;-68
2023/09/26 09:30:08;;;;;;;3.22;1.98;;;20.00;72.70;;;;;;5058857;28;20033;-69
2023/09/26 09:32:35;;;;;;;1.25;1.13;;;20.00;72.60;;;;;;5058656;28;20032;-67
2023/09/26 09:35:02;;;;;;;2.55;1.30;;;20.10;72.60;;;;;;5047871;28;20037;-67
2023/09/26 09:37:28;;;;;;;2.47;1.67;;;20.20;72.50;;;;;;5063970;28;20035;-67
2023/09/26 09:39:54;;;;;;;1.40;1.30;;;20.30;72.30;;;;;;5063849;28;20035;-67
2023/09/26 09:42:23;;;;;;;1.25;1.15;;;20.40;72.20;;;;;;5067076;28;20120;-67
2023/09/26 09:44:49;;;;;;;6.05;1.48;;;20.60;71.90;;;;;;5062597;28;20025;-67
2023/09/26 09:47:23;;;;;;;2.78;1.65;;;20.90;71.60;;;;;;5063151;28;20036;-67
2023/09/26 09:49:50;;;;;;;1.83;1.33;;;21.10;71.10;;;;;;5044797;28;20028;-67
2023/09/26 09:52:21;;;;;;;2.72;1.52;;;21.30;70.70;;;;;;5065166;28;20409;-67
2023/09/26 09:54:47;;;;;;;2.75;1.77;;;21.50;70.20;;;;;;5061220;28;20372;-67
2023/09/26 09:57:17;;;;;;;2.10;1.65;;;21.70;69.80;;;;;;5069550;28;20104;-67
2023/09/26 09:59:45;;;;;;;1.70;1.23;;;21.90;69.50;;;;;;5066322;28;20508;-68
2023/09/26 10:02:17;;;;;;;1.83;1.45;;;22.00;69.30;;;;;;5067326;28;20043;-67
2023/09/26 10:04:46;;;;;;;1.40;1.30;;;22.10;68.80;;;;;;5065692;28;20028;-67
2023/09/26 10:07:12;;;;;;;2.83;1.42;;;22.10;68.70;;;;;;5066097;28;20040;-68
2023/09/26 10:09:39;;;;;;;2.70;1.70;;;22.10;68.30;;;;;;5068172;28;20029;-67
2023/09/26 10:12:06;;;;;;;2.13;1.35;;;22.10;68.30;;;;;;5061126;28;20038;-68
2023/09/26 10:14:32;;;;;;;2.40;2.20;;;22.20;68.50;;;;;;5055843;28;20028;-67
2023/09/26 10:16:59;;;;;;;4.40;2.22;;;22.30;67.80;;;;;;5050406;28;20058;-67
2023/09/26 10:19:28;;;;;;;2.05;1.55;;;22.40;67.50;;;;;;5068460;28;20028;-67
2023/09/26 10:22:19;;;;;;;2.40;2.15;;;22.40;66.90;;;;;;5063405;28;20070;-67
2023/09/26 10:24:49;;;;;;;1.27;1.17;;;22.50;66.70;;;;;;5047871;28;20505;-69
2023/09/26 10:27:31;;;;;;;2.75;1.33;;;22.60;66.40;;;;;;5060391;28;20033;-69
2023/09/26 10:29:57;;;;;;;;;;;22.70;66.40;;;;;;5065215;28;20109;-67
2023/09/26 10:32:34;;;;;;;4.40;1.80;;;22.70;65.70;;;;;;5062969;28;19921;-68
2023/09/26 10:35:23;;;;;;;2.45;1.50;;;22.70;66.00;;;;;;5062951;28;20047;-67
2023/09/26 10:37:53;;;;;;;1.50;1.40;;;22.70;66.20;;;;;;5064241;28;20579;-67
2023/09/26 10:40:18;;;;;;;2.47;1.40;;;22.70;66.50;;;;;;5066053;28;20138;-67
2023/09/26 10:42:46;;;;;;;1.85;1.40;;;22.70;66.50;;;;;;5064990;28;20059;-67
2023/09/26 10:45:12;;;;;;;1.35;1.20;;;22.80;66.40;;;;;;5060530;28;20066;-67
2023/09/26 10:47:40;;;;;;;1.02;0.90;;;22.90;66.50;;;;;;5060065;28;20032;-67
2023/09/26 10:50:08;;;;;;;3.80;1.70;;;23.00;66.40;;;;;;5045635;28;20032;-67
2023/09/26 10:52:34;;;;;;;2.13;1.55;;;23.10;65.90;;;;;;5065856;28;20031;-67
2023/09/26 10:55:01;;;;;;;1.75;1.33;;;23.00;65.60;;;;;;5061628;28;20032;-69
2023/09/26 10:57:27;;;;;;;4.03;1.90;;;23.00;65.90;;;;;;5064762;28;20021;-69
2023/09/26 10:59:54;;;;;;;1.52;1.40;;;23.00;65.60;;;;;;5043439;28;20039;-69
2023/09/26 11:02:22;;;;;;;2.10;1.58;;;23.00;65.60;;;;;;5065618;28;20029;-69
2023/09/26 11:04:47;;;;;;;2.03;1.33;;;22.90;65.10;;;;;;5067200;28;20475;-69
2023/09/26 11:07:15;;;;;;;2.08;1.13;;;22.80;65.60;;;;;;5063498;28;20025;-69
2023/09/26 11:09:42;;;;;;;3.35;1.90;;;22.70;66.00;;;;;;5063172;28;20073;-69
2023/09/26 11:12:08;;;;;;;2.58;1.27;;;22.70;65.80;;;;;;5058606;28;20032;-68
2023/09/26 11:14:34;;;;;;;2.20;1.98;;;22.70;65.80;;;;;;5061573;28;20483;-67
2023/09/26 11:17:00;;;;;;;1.30;1.20;;;22.80;66.00;;;;;;5066548;28;20016;-69
2023/09/26 11:19:27;;;;;;;1.92;1.27;;;22.90;65.90;;;;;;5070119;28;20040;-67
2023/09/26 11:21:54;;;;;;;1.27;1.15;;;23.00;65.50;;;;;;5064702;28;20073;-68
2023/09/26 11:24:30;;;;;;;2.30;1.17;;;23.20;65.30;;;;;;5065977;28;20028;-67
2023/09/26 11:26:58;;;;;;;1.80;1.20;;;23.60;65.10;;;;;;5051498;28;20024;-67
2023/09/26 11:29:24;;;;;;;2.50;1.00;;;23.90;64.80;;;;;;5063937;28;20128;-67
2023/09/26 11:31:52;;;;;;;3.05;1.85;;;24.30;64.20;;;;;;5064469;28;20036;-67
2023/09/26 11:34:19;;;;;;;2.70;1.60;;;24.50;62.70;;;;;;5067085;28;20059;-67
2023/09/26 11:36:47;;;;;;;3.33;2.05;;;24.70;62.60;;;;;;5064094;28;21463;-67
2023/09/26 11:39:14;;;;;;;1.75;1.40;;;24.70;61.50;;;;;;5068422;28;20404;-68
2023/09/26 11:41:41;;;;;;;1.75;1.30;;;24.60;61.50;;;;;;5065440;28;20509;-67
2023/09/26 11:44:11;;;;;;;2.42;1.40;;;24.50;62.30;;;;;;5054038;28;20095;-67
2023/09/26 11:46:47;;;;;;;2.15;1.60;;;24.50;62.20;;;;;;5061922;28;20499;-68
2023/09/26 11:49:15;;;;;;;1.70;1.60;;;24.50;61.10;;;;;;5064124;28;20017;-68
2023/09/26 11:51:41;;;;;;;4.22;1.80;;;24.30;61.20;;;;;;5062420;28;20037;-69
2023/09/26 11:54:07;;;;;;;1.42;1.30;;;24.30;61.60;;;;;;5049768;28;20384;-69
2023/09/26 11:56:34;;;;;;;0.85;0.85;;;24.20;61.90;;;;;;5065642;28;20108;-69
2023/09/26 11:59:06;;;;;;;1.25;1.13;;;24.20;62.20;;;;;;5056060;28;20387;-69
2023/09/26 12:01:32;;;;;;;1.05;0.82;;;24.10;62.50;;;;;;5046973;28;20467;-69
2023/09/26 12:04:06;;;;;;;3.40;1.20;;;24.10;62.50;;;;;;5061867;28;20029;-69
2023/09/26 12:06:33;;;;;;;1.42;0.90;;;24.00;62.40;;;;;;5057363;28;20607;-69
2023/09/26 12:08:59;;;;;;;1.52;0.93;;;23.80;62.80;;;;;;5041969;28;20078;-69
2023/09/26 12:11:25;;;;;;;0.70;0.70;;;23.80;63.10;;;;;;5065128;28;20033;-69
2023/09/26 12:13:51;;;;;;;1.60;0.70;;;23.90;62.90;;;;;;5052182;28;20036;-69
2023/09/26 12:16:17;;;;;;;0.85;0.82;;;23.90;63.60;;;;;;5031093;28;20041;-69
2023/09/26 12:18:42;;;;;;;1.05;0.88;;;24.00;62.70;;;;;;5048073;28;20054;-69
2023/09/26 12:21:09;;;;;;;1.95;1.23;;;24.10;62.70;;;;;;5060718;28;20036;-69
2023/09/26 12:23:35;;;;;;;3.45;1.58;;;24.10;62.50;;;;;;5045457;28;20037;-69
2023/09/26 12:26:01;;;;;;;2.58;0.80;;;24.20;62.30;;;;;;5069305;28;20458;-69
2023/09/26 12:28:27;;;;;;;1.08;0.88;;;24.30;62.00;;;;;;5058828;28;20113;-69
2023/09/26 12:30:53;;;;;;;2.67;1.30;;;24.50;61.60;;;;;;5060161;28;20036;-67
2023/09/26 12:33:18;;;;;;;0.95;0.93;;;24.50;61.50;;;;;;5064274;28;20136;-67
2023/09/26 12:35:44;;;;;;;1.80;0.98;;;24.70;61.30;;;;;;5061761;28;20123;-69
2023/09/26 12:38:10;;;;;;;3.15;1.10;;;24.70;61.20;;;;;;5051623;28;20032;-69
2023/09/26 12:40:36;;;;;;;1.10;1.00;;;24.80;60.30;;;;;;5064630;28;20033;-69
2023/09/26 12:43:02;;;;;;;2.35;0.90;;;24.80;59.30;;;;;;5063173;28;20056;-69
2023/09/26 12:45:29;;;;;;;4.45;1.58;;;24.90;59.50;;;;;;5066470;28;20115;-69